sensor_id;sensor_type;location;lat;lon;timestamp;temperature;humidity
1686;DHT22;840;47.980;7.830;2023-08-01T00:01:11;21.40;99.90
1686;DHT22;840;47.980;7.830;2023-08-01T00:03:39;21.50;99.90
1686;DHT22;840;47.980;7.830;2023-08-01T00:06:06;21.50;99.90
1686;DHT22;840;47.980;7.830;2023-08-01T00:08:33;21.50;99.90
1686;DHT22;840;47.980;7.830;2023-08-01T00:11:00;21.40;99.90
1686;DHT22;840;47.980;7.830;2023-08-01T00:13:27;21.40;99.90
1686;DHT22;840;47.980;7.830;2023-08-01T00:15:54;21.40;99.90
1686;DHT22;840;47.980;7.830;2023-08-01T00:18:20;21.30;99.90
1686;DHT22;840;47.980;7.830;2023-08-01T00:20:49;21.30;99.90
1686;DHT22;840;47.980;7.830;2023-08-01T00:23:18;21.30;99.90
1686;DHT22;840;47.980;7.830;2023-08-01T00:25:45;21.30;99.90
1686;DHT22;840;47.980;7.830;2023-08-01T00:28:16;21.30;99.90
1686;DHT22;840;47.980;7.830;2023-08-01T00:30:43;21.20;99.90
1686;DHT22;840;47.980;7.830;2023-08-01T00:33:10;21.20;99.90
1686;DHT22;840;47.980;7.830;2023-08-01T00:35:36;21.20;99.90
1686;DHT22;840;47.980;7.830;2023-08-01T00:38:05;21.20;99.90
1686;DHT22;840;47.980;7.830;2023-08-01T00:40:31;21.20;99.90
1686;DHT22;840;47.980;7.830;2023-08-01T00:42:59;21.20;99.90
1686;DHT22;840;47.980;7.830;2023-08-01T00:45:26;21.10;99.90
1686;DHT22;840;47.980;7.830;2023-08-01T00:47:54;21.10;99.90
1686;DHT22;840;47.980;7.830;2023-08-01T00:50:21;21.10;99.90
1686;DHT22;840;47.980;7.830;2023-08-01T00:52:49;21.10;99.90
1686;DHT22;840;47.980;7.830;2023-08-01T00:55:18;21.10;99.90
1686;DHT22;840;47.980;7.830;2023-08-01T00:57:46;21.10;99.90
1686;DHT22;840;47.980;7.830;2023-08-01T01:00:13;21.10;99.90
1686;DHT22;840;47.980;7.830;2023-08-01T01:02:40;21.10;99.90
1686;DHT22;840;47.980;7.830;2023-08-01T01:05:07;21.10;99.90
1686;DHT22;840;47.980;7.830;2023-08-01T01:07:35;21.10;99.90
1686;DHT22;840;47.980;7.830;2023-08-01T01:10:02;21.20;99.90
1686;DHT22;840;47.980;7.830;2023-08-01T01:12:30;21.20;99.90
1686;DHT22;840;47.980;7.830;2023-08-01T01:14:57;21.20;99.90
1686;DHT22;840;47.980;7.830;2023-08-01T01:17:24;21.20;99.90
1686;DHT22;840;47.980;7.830;2023-08-01T01:19:50;21.20;99.90
1686;DHT22;840;47.980;7.830;2023-08-01T01:22:19;21.30;99.90
1686;DHT22;840;47.980;7.830;2023-08-01T01:24:47;21.30;99.90
1686;DHT22;840;47.980;7.830;2023-08-01T01:27:16;21.30;99.90
1686;DHT22;840;47.980;7.830;2023-08-01T01:29:43;21.30;99.90
1686;DHT22;840;47.980;7.830;2023-08-01T01:32:11;21.30;99.90
1686;DHT22;840;47.980;7.830;2023-08-01T01:34:39;21.30;99.90
1686;DHT22;840;47.980;7.830;2023-08-01T01:37:06;21.30;99.90
1686;DHT22;840;47.980;7.830;2023-08-01T01:39:34;21.40;99.90
1686;DHT22;840;47.980;7.830;2023-08-01T01:42:01;21.40;99.90
1686;DHT22;840;47.980;7.830;2023-08-01T01:44:28;21.40;99.90
1686;DHT22;840;47.980;7.830;2023-08-01T01:46:54;21.40;99.90
1686;DHT22;840;47.980;7.830;2023-08-01T01:49:21;21.40;99.90
1686;DHT22;840;47.980;7.830;2023-08-01T01:51:48;21.50;99.90
1686;DHT22;840;47.980;7.830;2023-08-01T01:54:14;21.50;99.90
1686;DHT22;840;47.980;7.830;2023-08-01T01:56:43;21.60;99.90
1686;DHT22;840;47.980;7.830;2023-08-01T01:59:09;21.60;99.90
1686;DHT22;840;47.980;7.830;2023-08-01T02:01:36;21.60;99.90
1686;DHT22;840;47.980;7.830;2023-08-01T02:04:03;21.60;99.90
1686;DHT22;840;47.980;7.830;2023-08-01T02:06:30;21.60;99.90
1686;DHT22;840;47.980;7.830;2023-08-01T02:08:56;21.60;99.90
1686;DHT22;840;47.980;7.830;2023-08-01T02:11:23;21.60;99.90
1686;DHT22;840;47.980;7.830;2023-08-01T02:13:51;21.60;99.90
1686;DHT22;840;47.980;7.830;2023-08-01T02:16:18;21.60;99.90
1686;DHT22;840;47.980;7.830;2023-08-01T02:18:44;21.70;99.90
1686;DHT22;840;47.980;7.830;2023-08-01T02:21:11;21.70;99.90
1686;DHT22;840;47.980;7.830;2023-08-01T02:23:38;21.70;99.90
1686;DHT22;840;47.980;7.830;2023-08-01T02:26:05;21.70;99.90
1686;DHT22;840;47.980;7.830;2023-08-01T02:28:33;21.60;99.90
1686;DHT22;840;47.980;7.830;2023-08-01T02:31:01;21.60;99.90
1686;DHT22;840;47.980;7.830;2023-08-01T02:33:28;21.70;99.90
1686;DHT22;840;47.980;7.830;2023-08-01T02:35:55;21.70;99.90
1686;DHT22;840;47.980;7.830;2023-08-01T02:38:21;21.70;99.90
1686;DHT22;840;47.980;7.830;2023-08-01T02:40:48;21.60;99.90
1686;DHT22;840;47.980;7.830;2023-08-01T02:43:15;21.70;99.90
1686;DHT22;840;47.980;7.830;2023-08-01T02:45:42;21.60;99.90
1686;DHT22;840;47.980;7.830;2023-08-01T02:48:11;21.60;99.90
1686;DHT22;840;47.980;7.830;2023-08-01T02:50:37;21.60;99.90
1686;DHT22;840;47.980;7.830;2023-08-01T02:53:06;21.60;99.90
1686;DHT22;840;47.980;7.830;2023-08-01T02:55:33;21.60;99.90
1686;DHT22;840;47.980;7.830;2023-08-01T02:58:00;21.60;99.90
1686;DHT22;840;47.980;7.830;2023-08-01T03:00:26;21.60;99.90
1686;DHT22;840;47.980;7.830;2023-08-01T03:02:53;21.60;99.90
1686;DHT22;840;47.980;7.830;2023-08-01T03:05:21;21.60;99.90
1686;DHT22;840;47.980;7.830;2023-08-01T03:07:48;21.60;99.90
1686;DHT22;840;47.980;7.830;2023-08-01T03:10:14;21.60;99.90
1686;DHT22;840;47.980;7.830;2023-08-01T03:12:41;21.60;99.90
1686;DHT22;840;47.980;7.830;2023-08-01T03:15:09;21.60;99.90
1686;DHT22;840;47.980;7.830;2023-08-01T03:17:35;21.60;99.90
1686;DHT22;840;47.980;7.830;2023-08-01T03:20:03;21.60;99.90
1686;DHT22;840;47.980;7.830;2023-08-01T03:22:31;21.50;99.90
1686;DHT22;840;47.980;7.830;2023-08-01T03:24:57;21.50;99.90
1686;DHT22;840;47.980;7.830;2023-08-01T03:27:24;21.50;99.90
1686;DHT22;840;47.980;7.830;2023-08-01T03:29:51;21.40;99.90
1686;DHT22;840;47.980;7.830;2023-08-01T03:32:18;21.30;99.90
1686;DHT22;840;47.980;7.830;2023-08-01T03:34:45;21.30;99.90
1686;DHT22;840;47.980;7.830;2023-08-01T03:37:13;21.20;99.90
1686;DHT22;840;47.980;7.830;2023-08-01T03:39:44;21.10;99.90
1686;DHT22;840;47.980;7.830;2023-08-01T03:42:11;21.00;99.90
1686;DHT22;840;47.980;7.830;2023-08-01T03:44:38;21.00;99.90
1686;DHT22;840;47.980;7.830;2023-08-01T03:47:05;20.90;99.90
1686;DHT22;840;47.980;7.830;2023-08-01T03:49:32;20.90;99.90
1686;DHT22;840;47.980;7.830;2023-08-01T03:51:58;20.80;99.90
1686;DHT22;840;47.980;7.830;2023-08-01T03:54:25;20.80;99.90
1686;DHT22;840;47.980;7.830;2023-08-01T03:56:53;20.70;99.90
1686;DHT22;840;47.980;7.830;2023-08-01T03:59:20;20.70;99.90
1686;DHT22;840;47.980;7.830;2023-08-01T04:01:47;20.70;99.90
1686;DHT22;840;47.980;7.830;2023-08-01T04:04:13;20.70;99.90
1686;DHT22;840;47.980;7.830;2023-08-01T04:06:41;20.70;99.90
1686;DHT22;840;47.980;7.830;2023-08-01T04:09:08;20.70;99.90
1686;DHT22;840;47.980;7.830;2023-08-01T04:11:35;20.70;99.90
1686;DHT22;840;47.980;7.830;2023-08-01T04:14:03;20.70;99.90
1686;DHT22;840;47.980;7.830;2023-08-01T04:16:30;20.60;99.90
1686;DHT22;840;47.980;7.830;2023-08-01T04:18:56;20.50;99.90
1686;DHT22;840;47.980;7.830;2023-08-01T04:21:23;20.40;99.90
1686;DHT22;840;47.980;7.830;2023-08-01T04:23:50;20.40;99.90
1686;DHT22;840;47.980;7.830;2023-08-01T04:26:16;20.30;99.90
1686;DHT22;840;47.980;7.830;2023-08-01T04:28:45;20.20;99.90
1686;DHT22;840;47.980;7.830;2023-08-01T04:31:13;20.10;99.90
1686;DHT22;840;47.980;7.830;2023-08-01T04:33:40;20.00;99.90
1686;DHT22;840;47.980;7.830;2023-08-01T04:36:06;19.90;99.90
1686;DHT22;840;47.980;7.830;2023-08-01T04:38:33;19.90;99.90
1686;DHT22;840;47.980;7.830;2023-08-01T04:41:00;19.90;99.90
1686;DHT22;840;47.980;7.830;2023-08-01T04:43:28;19.90;99.90
1686;DHT22;840;47.980;7.830;2023-08-01T04:45:55;19.80;99.90
1686;DHT22;840;47.980;7.830;2023-08-01T04:48:23;19.80;99.90
1686;DHT22;840;47.980;7.830;2023-08-01T04:50:49;19.70;99.90
1686;DHT22;840;47.980;7.830;2023-08-01T04:53:16;19.70;99.90
1686;DHT22;840;47.980;7.830;2023-08-01T04:55:43;19.60;99.90
1686;DHT22;840;47.980;7.830;2023-08-01T04:58:10;19.50;99.90
1686;DHT22;840;47.980;7.830;2023-08-01T05:00:37;19.40;99.90
1686;DHT22;840;47.980;7.830;2023-08-01T05:03:03;19.20;99.90
1686;DHT22;840;47.980;7.830;2023-08-01T05:05:32;19.10;99.90
1686;DHT22;840;47.980;7.830;2023-08-01T05:07:58;19.00;99.90
1686;DHT22;840;47.980;7.830;2023-08-01T05:10:25;18.90;99.90
1686;DHT22;840;47.980;7.830;2023-08-01T05:12:52;18.80;99.90
1686;DHT22;840;47.980;7.830;2023-08-01T05:15:19;18.60;99.90
1686;DHT22;840;47.980;7.830;2023-08-01T05:17:45;18.60;99.90
1686;DHT22;840;47.980;7.830;2023-08-01T05:20:12;18.50;99.90
1686;DHT22;840;47.980;7.830;2023-08-01T05:22:40;18.50;99.90
1686;DHT22;840;47.980;7.830;2023-08-01T05:25:07;18.50;99.90
1686;DHT22;840;47.980;7.830;2023-08-01T05:27:34;18.50;99.90
1686;DHT22;840;47.980;7.830;2023-08-01T05:30:01;18.50;99.90
1686;DHT22;840;47.980;7.830;2023-08-01T05:32:28;18.50;99.90
1686;DHT22;840;47.980;7.830;2023-08-01T05:34:54;18.50;99.90
1686;DHT22;840;47.980;7.830;2023-08-01T05:37:21;18.50;99.90
1686;DHT22;840;47.980;7.830;2023-08-01T05:39:49;18.40;99.90
1686;DHT22;840;47.980;7.830;2023-08-01T05:42:16;18.40;99.90
1686;DHT22;840;47.980;7.830;2023-08-01T05:44:43;18.40;99.90
1686;DHT22;840;47.980;7.830;2023-08-01T05:47:09;18.40;99.90
1686;DHT22;840;47.980;7.830;2023-08-01T05:49:36;18.40;99.90
1686;DHT22;840;47.980;7.830;2023-08-01T05:52:03;18.40;99.90
1686;DHT22;840;47.980;7.830;2023-08-01T05:54:30;18.40;99.90
1686;DHT22;840;47.980;7.830;2023-08-01T05:56:58;18.40;99.90
1686;DHT22;840;47.980;7.830;2023-08-01T05:59:25;18.50;99.90
1686;DHT22;840;47.980;7.830;2023-08-01T06:01:52;18.50;99.90
1686;DHT22;840;47.980;7.830;2023-08-01T06:04:19;18.50;99.90
1686;DHT22;840;47.980;7.830;2023-08-01T06:06:46;18.60;99.90
1686;DHT22;840;47.980;7.830;2023-08-01T06:09:12;18.50;99.90
1686;DHT22;840;47.980;7.830;2023-08-01T06:11:39;18.50;99.90
1686;DHT22;840;47.980;7.830;2023-08-01T06:14:08;18.60;99.90
1686;DHT22;840;47.980;7.830;2023-08-01T06:16:35;18.60;99.90
1686;DHT22;840;47.980;7.830;2023-08-01T06:19:02;18.60;99.90
1686;DHT22;840;47.980;7.830;2023-08-01T06:21:29;18.50;99.90
1686;DHT22;840;47.980;7.830;2023-08-01T06:23:56;18.50;99.90
1686;DHT22;840;47.980;7.830;2023-08-01T06:26:23;18.30;99.90
1686;DHT22;840;47.980;7.830;2023-08-01T06:28:49;18.20;99.90
1686;DHT22;840;47.980;7.830;2023-08-01T06:31:19;18.20;99.90
1686;DHT22;840;47.980;7.830;2023-08-01T06:33:46;18.20;99.90
1686;DHT22;840;47.980;7.830;2023-08-01T06:36:13;18.20;99.90
1686;DHT22;840;47.980;7.830;2023-08-01T06:38:42;18.20;99.90
1686;DHT22;840;47.980;7.830;2023-08-01T06:41:08;18.30;99.90
1686;DHT22;840;47.980;7.830;2023-08-01T06:43:35;18.30;99.90
1686;DHT22;840;47.980;7.830;2023-08-01T06:46:03;18.40;99.90
1686;DHT22;840;47.980;7.830;2023-08-01T06:48:32;18.40;99.90
1686;DHT22;840;47.980;7.830;2023-08-01T06:51:00;18.40;99.90
1686;DHT22;840;47.980;7.830;2023-08-01T06:53:26;18.40;99.90
1686;DHT22;840;47.980;7.830;2023-08-01T06:55:53;18.40;99.90
1686;DHT22;840;47.980;7.830;2023-08-01T06:58:20;18.40;99.90
1686;DHT22;840;47.980;7.830;2023-08-01T07:00:47;18.40;99.90
1686;DHT22;840;47.980;7.830;2023-08-01T07:03:13;18.40;99.90
1686;DHT22;840;47.980;7.830;2023-08-01T07:05:42;18.50;99.90
1686;DHT22;840;47.980;7.830;2023-08-01T07:08:09;18.60;99.90
1686;DHT22;840;47.980;7.830;2023-08-01T07:10:36;18.80;99.90
1686;DHT22;840;47.980;7.830;2023-08-01T07:13:03;18.90;99.90
1686;DHT22;840;47.980;7.830;2023-08-01T07:15:30;19.00;99.90
1686;DHT22;840;47.980;7.830;2023-08-01T07:17:56;19.00;99.90
1686;DHT22;840;47.980;7.830;2023-08-01T07:20:23;19.10;99.90
1686;DHT22;840;47.980;7.830;2023-08-01T07:22:51;19.10;99.90
1686;DHT22;840;47.980;7.830;2023-08-01T07:25:18;19.00;99.90
1686;DHT22;840;47.980;7.830;2023-08-01T07:27:45;19.00;99.90
1686;DHT22;840;47.980;7.830;2023-08-01T07:30:12;18.90;99.90
1686;DHT22;840;47.980;7.830;2023-08-01T07:32:39;18.90;99.90
1686;DHT22;840;47.980;7.830;2023-08-01T07:35:08;18.80;99.90
1686;DHT22;840;47.980;7.830;2023-08-01T07:37:34;18.70;99.90
1686;DHT22;840;47.980;7.830;2023-08-01T07:40:05;18.70;99.90
1686;DHT22;840;47.980;7.830;2023-08-01T07:42:32;18.60;99.90
1686;DHT22;840;47.980;7.830;2023-08-01T07:44:58;18.50;99.90
1686;DHT22;840;47.980;7.830;2023-08-01T07:47:26;18.40;99.90
1686;DHT22;840;47.980;7.830;2023-08-01T07:49:53;18.30;99.90
1686;DHT22;840;47.980;7.830;2023-08-01T07:52:20;18.20;99.90
1686;DHT22;840;47.980;7.830;2023-08-01T07:54:46;18.20;99.90
1686;DHT22;840;47.980;7.830;2023-08-01T07:57:14;18.10;99.90
1686;DHT22;840;47.980;7.830;2023-08-01T07:59:41;18.00;99.90
1686;DHT22;840;47.980;7.830;2023-08-01T08:02:08;17.90;99.90
1686;DHT22;840;47.980;7.830;2023-08-01T08:04:35;17.90;99.90
1686;DHT22;840;47.980;7.830;2023-08-01T08:07:01;17.90;99.90
1686;DHT22;840;47.980;7.830;2023-08-01T08:09:28;17.90;99.90
1686;DHT22;840;47.980;7.830;2023-08-01T08:11:55;17.90;99.90
1686;DHT22;840;47.980;7.830;2023-08-01T08:14:24;17.90;99.90
1686;DHT22;840;47.980;7.830;2023-08-01T08:16:51;17.90;99.90
1686;DHT22;840;47.980;7.830;2023-08-01T08:19:17;17.90;99.90
1686;DHT22;840;47.980;7.830;2023-08-01T08:21:44;18.00;99.90
1686;DHT22;840;47.980;7.830;2023-08-01T08:24:11;18.00;99.90
1686;DHT22;840;47.980;7.830;2023-08-01T08:26:38;18.10;99.90
1686;DHT22;840;47.980;7.830;2023-08-01T08:29:05;18.10;99.90
1686;DHT22;840;47.980;7.830;2023-08-01T08:31:33;18.30;99.90
1686;DHT22;840;47.980;7.830;2023-08-01T08:34:01;18.40;99.90
1686;DHT22;840;47.980;7.830;2023-08-01T08:36:27;18.50;99.90
1686;DHT22;840;47.980;7.830;2023-08-01T08:38:54;18.60;99.90
1686;DHT22;840;47.980;7.830;2023-08-01T08:41:22;18.70;99.90
1686;DHT22;840;47.980;7.830;2023-08-01T08:43:51;18.80;99.90
1686;DHT22;840;47.980;7.830;2023-08-01T08:46:22;19.00;99.90
1686;DHT22;840;47.980;7.830;2023-08-01T08:48:52;19.00;99.90
1686;DHT22;840;47.980;7.830;2023-08-01T08:51:20;19.00;99.90
1686;DHT22;840;47.980;7.830;2023-08-01T08:53:49;19.00;99.90
1686;DHT22;840;47.980;7.830;2023-08-01T08:56:18;18.90;99.90
1686;DHT22;840;47.980;7.830;2023-08-01T08:58:45;19.00;99.90
1686;DHT22;840;47.980;7.830;2023-08-01T09:01:13;19.00;99.90
1686;DHT22;840;47.980;7.830;2023-08-01T09:03:40;19.10;99.90
1686;DHT22;840;47.980;7.830;2023-08-01T09:06:11;19.10;99.90
1686;DHT22;840;47.980;7.830;2023-08-01T09:08:40;19.20;99.90
1686;DHT22;840;47.980;7.830;2023-08-01T09:11:08;19.20;99.90
1686;DHT22;840;47.980;7.830;2023-08-01T09:13:35;19.30;99.90
1686;DHT22;840;47.980;7.830;2023-08-01T09:16:02;19.30;99.90
1686;DHT22;840;47.980;7.830;2023-08-01T09:18:29;19.40;99.90
1686;DHT22;840;47.980;7.830;2023-08-01T09:20:56;19.50;99.90
1686;DHT22;840;47.980;7.830;2023-08-01T09:23:29;19.60;99.90
1686;DHT22;840;47.980;7.830;2023-08-01T09:25:56;19.60;99.90
1686;DHT22;840;47.980;7.830;2023-08-01T09:28:23;19.70;99.90
1686;DHT22;840;47.980;7.830;2023-08-01T09:30:54;19.80;99.90
1686;DHT22;840;47.980;7.830;2023-08-01T09:33:23;19.80;99.90
1686;DHT22;840;47.980;7.830;2023-08-01T09:35:51;19.90;99.90
1686;DHT22;840;47.980;7.830;2023-08-01T09:38:18;20.00;99.90
1686;DHT22;840;47.980;7.830;2023-08-01T09:40:47;19.90;99.90
1686;DHT22;840;47.980;7.830;2023-08-01T09:43:14;20.00;99.90
1686;DHT22;840;47.980;7.830;2023-08-01T09:45:51;20.00;99.90
1686;DHT22;840;47.980;7.830;2023-08-01T09:48:23;20.00;99.90
1686;DHT22;840;47.980;7.830;2023-08-01T09:50:51;20.10;99.90
1686;DHT22;840;47.980;7.830;2023-08-01T09:53:18;20.20;99.90
1686;DHT22;840;47.980;7.830;2023-08-01T09:55:48;20.20;99.90
1686;DHT22;840;47.980;7.830;2023-08-01T09:58:17;20.30;99.90
1686;DHT22;840;47.980;7.830;2023-08-01T10:00:47;20.40;99.90
1686;DHT22;840;47.980;7.830;2023-08-01T10:03:16;20.50;99.90
1686;DHT22;840;47.980;7.830;2023-08-01T10:05:44;20.50;99.90
1686;DHT22;840;47.980;7.830;2023-08-01T10:08:13;20.60;99.90
1686;DHT22;840;47.980;7.830;2023-08-01T10:10:41;20.60;99.90
1686;DHT22;840;47.980;7.830;2023-08-01T10:13:13;20.60;99.90
1686;DHT22;840;47.980;7.830;2023-08-01T10:15:40;20.60;99.90
1686;DHT22;840;47.980;7.830;2023-08-01T10:18:08;20.60;99.90
1686;DHT22;840;47.980;7.830;2023-08-01T10:20:36;20.60;99.90
1686;DHT22;840;47.980;7.830;2023-08-01T10:23:04;20.60;99.90
1686;DHT22;840;47.980;7.830;2023-08-01T10:25:31;20.70;99.90
1686;DHT22;840;47.980;7.830;2023-08-01T10:28:00;20.80;99.90
1686;DHT22;840;47.980;7.830;2023-08-01T10:30:28;20.80;99.90
1686;DHT22;840;47.980;7.830;2023-08-01T10:32:56;20.90;99.90
1686;DHT22;840;47.980;7.830;2023-08-01T10:35:33;20.90;99.90
1686;DHT22;840;47.980;7.830;2023-08-01T10:38:04;21.00;99.90
1686;DHT22;840;47.980;7.830;2023-08-01T10:40:35;21.20;99.90
1686;DHT22;840;47.980;7.830;2023-08-01T10:43:02;21.40;99.90
1686;DHT22;840;47.980;7.830;2023-08-01T10:45:31;21.50;99.90
1686;DHT22;840;47.980;7.830;2023-08-01T10:48:08;21.60;99.90
1686;DHT22;840;47.980;7.830;2023-08-01T10:50:35;21.70;99.90
1686;DHT22;840;47.980;7.830;2023-08-01T10:53:03;21.80;99.90
1686;DHT22;840;47.980;7.830;2023-08-01T10:55:39;21.80;99.90
1686;DHT22;840;47.980;7.830;2023-08-01T10:58:06;21.90;99.90
1686;DHT22;840;47.980;7.830;2023-08-01T11:00:34;21.90;99.90
1686;DHT22;840;47.980;7.830;2023-08-01T11:03:01;21.90;99.90
1686;DHT22;840;47.980;7.830;2023-08-01T11:05:28;21.90;99.90
1686;DHT22;840;47.980;7.830;2023-08-01T11:07:55;22.00;99.90
1686;DHT22;840;47.980;7.830;2023-08-01T11:10:24;22.10;99.90
1686;DHT22;840;47.980;7.830;2023-08-01T11:12:51;22.30;99.90
1686;DHT22;840;47.980;7.830;2023-08-01T11:15:19;22.50;99.90
1686;DHT22;840;47.980;7.830;2023-08-01T11:17:49;22.70;99.90
1686;DHT22;840;47.980;7.830;2023-08-01T11:20:17;22.80;99.90
1686;DHT22;840;47.980;7.830;2023-08-01T11:22:54;22.90;99.90
1686;DHT22;840;47.980;7.830;2023-08-01T11:25:34;23.00;99.90
1686;DHT22;840;47.980;7.830;2023-08-01T11:28:05;23.10;99.90
1686;DHT22;840;47.980;7.830;2023-08-01T11:30:32;23.20;99.90
1686;DHT22;840;47.980;7.830;2023-08-01T11:33:00;23.30;99.90
1686;DHT22;840;47.980;7.830;2023-08-01T11:35:28;23.40;99.90
1686;DHT22;840;47.980;7.830;2023-08-01T11:37:55;23.50;99.90
1686;DHT22;840;47.980;7.830;2023-08-01T11:40:24;23.50;99.90
1686;DHT22;840;47.980;7.830;2023-08-01T11:42:56;23.50;99.90
1686;DHT22;840;47.980;7.830;2023-08-01T11:45:23;23.60;99.90
1686;DHT22;840;47.980;7.830;2023-08-01T11:47:50;23.70;99.90
1686;DHT22;840;47.980;7.830;2023-08-01T11:50:22;23.80;99.90
1686;DHT22;840;47.980;7.830;2023-08-01T11:52:49;23.80;99.90
1686;DHT22;840;47.980;7.830;2023-08-01T11:55:20;23.90;99.90
1686;DHT22;840;47.980;7.830;2023-08-01T11:57:54;23.90;99.90
1686;DHT22;840;47.980;7.830;2023-08-01T12:00:22;23.80;99.90
1686;DHT22;840;47.980;7.830;2023-08-01T12:02:49;23.60;99.90
1686;DHT22;840;47.980;7.830;2023-08-01T12:05:23;23.60;99.90
1686;DHT22;840;47.980;7.830;2023-08-01T12:07:50;23.60;99.90
1686;DHT22;840;47.980;7.830;2023-08-01T12:10:17;23.40;99.90
1686;DHT22;840;47.980;7.830;2023-08-01T12:12:45;23.40;99.90
1686;DHT22;840;47.980;7.830;2023-08-01T12:15:13;23.40;99.90
1686;DHT22;840;47.980;7.830;2023-08-01T12:17:40;23.50;99.90
1686;DHT22;840;47.980;7.830;2023-08-01T12:20:07;23.70;99.90
1686;DHT22;840;47.980;7.830;2023-08-01T12:22:36;23.80;99.90
1686;DHT22;840;47.980;7.830;2023-08-01T12:25:03;23.90;99.90
1686;DHT22;840;47.980;7.830;2023-08-01T12:27:30;24.10;99.90
1686;DHT22;840;47.980;7.830;2023-08-01T12:29:57;24.20;99.90
1686;DHT22;840;47.980;7.830;2023-08-01T12:32:24;24.50;99.90
1686;DHT22;840;47.980;7.830;2023-08-01T12:34:50;24.80;99.90
1686;DHT22;840;47.980;7.830;2023-08-01T12:37:17;25.00;99.90
1686;DHT22;840;47.980;7.830;2023-08-01T12:39:45;25.20;99.90
1686;DHT22;840;47.980;7.830;2023-08-01T12:42:12;25.50;99.90
1686;DHT22;840;47.980;7.830;2023-08-01T12:44:38;25.80;99.90
1686;DHT22;840;47.980;7.830;2023-08-01T12:47:05;26.00;99.90
1686;DHT22;840;47.980;7.830;2023-08-01T12:49:33;26.40;99.90
1686;DHT22;840;47.980;7.830;2023-08-01T12:52:03;26.70;99.90
1686;DHT22;840;47.980;7.830;2023-08-01T12:54:30;26.90;99.90
1686;DHT22;840;47.980;7.830;2023-08-01T12:56:58;26.80;99.90
1686;DHT22;840;47.980;7.830;2023-08-01T12:59:24;26.80;99.90
1686;DHT22;840;47.980;7.830;2023-08-01T13:01:51;26.90;99.90
1686;DHT22;840;47.980;7.830;2023-08-01T13:04:18;27.10;99.90
1686;DHT22;840;47.980;7.830;2023-08-01T13:06:45;27.30;99.90
1686;DHT22;840;47.980;7.830;2023-08-01T13:09:12;27.20;99.90
1686;DHT22;840;47.980;7.830;2023-08-01T13:11:38;27.30;99.90
1686;DHT22;840;47.980;7.830;2023-08-01T13:14:06;27.40;99.90
1686;DHT22;840;47.980;7.830;2023-08-01T13:16:33;27.30;99.90
1686;DHT22;840;47.980;7.830;2023-08-01T13:19:00;27.10;99.90
1686;DHT22;840;47.980;7.830;2023-08-01T13:21:27;26.80;99.90
1686;DHT22;840;47.980;7.830;2023-08-01T13:23:53;26.50;99.90
1686;DHT22;840;47.980;7.830;2023-08-01T13:26:20;26.30;99.90
1686;DHT22;840;47.980;7.830;2023-08-01T13:28:47;25.80;99.90
1686;DHT22;840;47.980;7.830;2023-08-01T13:31:15;25.30;99.90
1686;DHT22;840;47.980;7.830;2023-08-01T13:33:41;25.00;99.90
1686;DHT22;840;47.980;7.830;2023-08-01T13:36:08;24.30;99.90
1686;DHT22;840;47.980;7.830;2023-08-01T13:38:35;23.20;99.90
1686;DHT22;840;47.980;7.830;2023-08-01T13:41:02;22.50;99.90
1686;DHT22;840;47.980;7.830;2023-08-01T13:43:28;22.30;99.90
1686;DHT22;840;47.980;7.830;2023-08-01T13:45:58;22.10;99.90
1686;DHT22;840;47.980;7.830;2023-08-01T13:48:26;22.00;99.90
1686;DHT22;840;47.980;7.830;2023-08-01T13:50:57;22.00;99.90
1686;DHT22;840;47.980;7.830;2023-08-01T13:53:24;22.00;99.90
1686;DHT22;840;47.980;7.830;2023-08-01T13:55:50;22.10;99.90
1686;DHT22;840;47.980;7.830;2023-08-01T13:58:17;22.20;99.90
1686;DHT22;840;47.980;7.830;2023-08-01T14:00:44;22.30;99.90
1686;DHT22;840;47.980;7.830;2023-08-01T14:03:11;22.60;99.90
1686;DHT22;840;47.980;7.830;2023-08-01T14:05:39;23.00;99.90
1686;DHT22;840;47.980;7.830;2023-08-01T14:08:06;23.40;99.90
1686;DHT22;840;47.980;7.830;2023-08-01T14:10:33;23.90;99.90
1686;DHT22;840;47.980;7.830;2023-08-01T14:13:00;24.50;99.90
1686;DHT22;840;47.980;7.830;2023-08-01T14:15:26;24.90;99.90
1686;DHT22;840;47.980;7.830;2023-08-01T14:17:53;25.30;99.90
1686;DHT22;840;47.980;7.830;2023-08-01T14:20:20;25.70;99.90
1686;DHT22;840;47.980;7.830;2023-08-01T14:22:48;26.00;99.90
1686;DHT22;840;47.980;7.830;2023-08-01T14:25:14;26.30;99.90
1686;DHT22;840;47.980;7.830;2023-08-01T14:27:41;26.60;99.90
1686;DHT22;840;47.980;7.830;2023-08-01T14:30:08;26.90;99.90
1686;DHT22;840;47.980;7.830;2023-08-01T14:32:37;27.10;99.90
1686;DHT22;840;47.980;7.830;2023-08-01T14:35:05;27.30;99.90
1686;DHT22;840;47.980;7.830;2023-08-01T14:37:32;27.50;99.90
1686;DHT22;840;47.980;7.830;2023-08-01T14:40:01;27.70;99.90
1686;DHT22;840;47.980;7.830;2023-08-01T14:42:28;27.60;99.90
1686;DHT22;840;47.980;7.830;2023-08-01T14:44:55;27.40;99.90
1686;DHT22;840;47.980;7.830;2023-08-01T14:47:22;27.20;99.90
1686;DHT22;840;47.980;7.830;2023-08-01T14:49:49;26.90;99.90
1686;DHT22;840;47.980;7.830;2023-08-01T14:52:16;26.80;99.90
1686;DHT22;840;47.980;7.830;2023-08-01T14:54:43;26.70;99.90
1686;DHT22;840;47.980;7.830;2023-08-01T14:57:11;26.40;99.90
1686;DHT22;840;47.980;7.830;2023-08-01T14:59:37;26.10;99.90
1686;DHT22;840;47.980;7.830;2023-08-01T15:02:05;25.70;99.90
1686;DHT22;840;47.980;7.830;2023-08-01T15:04:32;25.40;99.90
1686;DHT22;840;47.980;7.830;2023-08-01T15:07:01;25.30;99.90
1686;DHT22;840;47.980;7.830;2023-08-01T15:09:29;25.10;99.90
1686;DHT22;840;47.980;7.830;2023-08-01T15:11:56;25.00;99.90
1686;DHT22;840;47.980;7.830;2023-08-01T15:14:24;24.90;99.90
1686;DHT22;840;47.980;7.830;2023-08-01T15:16:51;24.80;99.90
1686;DHT22;840;47.980;7.830;2023-08-01T15:19:17;24.70;99.90
1686;DHT22;840;47.980;7.830;2023-08-01T15:21:45;24.60;99.90
1686;DHT22;840;47.980;7.830;2023-08-01T15:24:11;24.50;99.90
1686;DHT22;840;47.980;7.830;2023-08-01T15:26:38;24.50;99.90
1686;DHT22;840;47.980;7.830;2023-08-01T15:29:05;24.40;99.90
1686;DHT22;840;47.980;7.830;2023-08-01T15:31:34;24.40;99.90
1686;DHT22;840;47.980;7.830;2023-08-01T15:34:01;24.40;99.90
1686;DHT22;840;47.980;7.830;2023-08-01T15:36:29;24.50;99.90
1686;DHT22;840;47.980;7.830;2023-08-01T15:38:56;24.50;99.90
1686;DHT22;840;47.980;7.830;2023-08-01T15:41:23;24.40;99.90
1686;DHT22;840;47.980;7.830;2023-08-01T15:43:50;24.40;99.90
1686;DHT22;840;47.980;7.830;2023-08-01T15:46:17;24.40;99.90
1686;DHT22;840;47.980;7.830;2023-08-01T15:48:45;24.30;99.90
1686;DHT22;840;47.980;7.830;2023-08-01T15:51:12;24.30;99.90
1686;DHT22;840;47.980;7.830;2023-08-01T15:53:39;24.20;99.90
1686;DHT22;840;47.980;7.830;2023-08-01T15:56:07;24.10;99.90
1686;DHT22;840;47.980;7.830;2023-08-01T15:58:36;24.00;99.90
1686;DHT22;840;47.980;7.830;2023-08-01T16:01:03;23.90;99.90
1686;DHT22;840;47.980;7.830;2023-08-01T16:03:32;23.90;99.90
1686;DHT22;840;47.980;7.830;2023-08-01T16:06:00;23.90;99.90
1686;DHT22;840;47.980;7.830;2023-08-01T16:08:27;24.00;99.90
1686;DHT22;840;47.980;7.830;2023-08-01T16:10:53;24.10;99.90
1686;DHT22;840;47.980;7.830;2023-08-01T16:13:20;24.20;99.90
1686;DHT22;840;47.980;7.830;2023-08-01T16:15:48;24.30;99.90
1686;DHT22;840;47.980;7.830;2023-08-01T16:18:16;24.30;99.90